This is the latest recevied weather packets stored in our database for station/object KF6GPE. If no packets are shown the sender has not sent any weather packets the latest 10 day(s).
| Time | Temp. | Humidity | Pressure | Rain* | Wind** | Luminosity | Snow |
|---|---|---|---|---|---|---|---|
| 1777762803 | 18.33° C | 69% | 985 hPa | 0 mm | - | 1048 W/m² | - |
| 1777762203 | 18.33° C | 69% | 985.1 hPa | 0 mm | - | 1062 W/m² | - |
| 1777761603 | 18.33° C | 68% | 985.3 hPa | 0 mm | - | 1066 W/m² | - |
| 1777761003 | 18.33° C | 70% | 985.4 hPa | 0 mm | - | 1063 W/m² | - |
| 1777760403 | 18.33° C | 69% | 985.6 hPa | 0 mm | - | 1063 W/m² | - |
| 1777759803 | 18.89° C | 68% | 985.8 hPa | 0 mm | - | 1073 W/m² | - |
| 1777759203 | 18.33° C | 70% | 985.9 hPa | 0 mm | - | 1075 W/m² | - |
| 1777758602 | 18.89° C | 68% | 986.1 hPa | 0 mm | - | 1082 W/m² | - |
| 1777758004 | 17.78° C | 70% | 986.1 hPa | 0 mm | - | 1078 W/m² | - |
| 1777757403 | 17.78° C | 72% | 986 hPa | 0 mm | - | 1036 W/m² | - |
| 1777756802 | 17.78° C | 72% | 986.2 hPa | 0 mm | - | 1072 W/m² | - |
| 1777756204 | 17.78° C | 70% | 986.2 hPa | 0 mm | - | 1052 W/m² | - |
| 1777755603 | 16.67° C | 74% | 986.3 hPa | 0 mm | - | 1025 W/m² | - |
| 1777755003 | 17.22° C | 73% | 986.4 hPa | 0 mm | - | 1021 W/m² | - |
| 1777754403 | 17.78° C | 69% | 986.7 hPa | 0 mm | - | 1034 W/m² | - |
| 1777753803 | 16.67° C | 75% | 986.8 hPa | 0 mm | - | 1074 W/m² | - |
| 1777753203 | 16.67° C | 74% | 987 hPa | 0 mm | - | 1031 W/m² | - |
| 1777752602 | 16.67° C | 75% | 987 hPa | 0 mm | - | 1020 W/m² | - |
| 1777752005 | 17.22° C | 75% | 987.2 hPa | 0 mm | - | 1031 W/m² | - |
| 1777751403 | 16.11° C | 75% | 987.3 hPa | 0 mm | - | 1053 W/m² | - |
| 1777750804 | 16.67° C | 73% | 987.3 hPa | 0 mm | - | 1026 W/m² | - |
| 1777750203 | 16.67° C | 73% | 987.4 hPa | 0 mm | - | 1026 W/m² | - |
| 1777749603 | 16.11° C | 74% | 987.5 hPa | 0 mm | - | 1044 W/m² | - |
| 1777749004 | 15° C | 78% | 987.5 hPa | 0 mm | - | 1047 W/m² | - |
| 1777748404 | 14.44° C | 80% | 987.6 hPa | 0 mm | - | 1024 W/m² | - |
* Rain latest hour (hover to see other rain measurements)
** Current wind speed in m/s (hover to see current wind gust speed)